sensor_id;sensor_type;location;lat;lon;timestamp;P1;durP1;ratioP1;P2;durP2;ratioP2
21733;SDS011;11029;47.820;10.534;2023-12-04T00:02:38;4.15;;;2.08;;
21733;SDS011;11029;47.820;10.534;2023-12-04T00:05:23;3.08;;;2.65;;
21733;SDS011;11029;47.820;10.534;2023-12-04T00:08:08;4.50;;;2.28;;
21733;SDS011;11029;47.820;10.534;2023-12-04T00:10:55;2.97;;;2.28;;
21733;SDS011;11029;47.820;10.534;2023-12-04T00:13:41;5.50;;;3.30;;
21733;SDS011;11029;47.820;10.534;2023-12-04T00:16:26;4.63;;;2.30;;
21733;SDS011;11029;47.820;10.534;2023-12-04T00:19:12;3.83;;;2.00;;
21733;SDS011;11029;47.820;10.534;2023-12-04T00:21:58;3.78;;;2.25;;
21733;SDS011;11029;47.820;10.534;2023-12-04T00:24:43;8.23;;;3.03;;
21733;SDS011;11029;47.820;10.534;2023-12-04T00:27:29;6.07;;;2.50;;
21733;SDS011;11029;47.820;10.534;2023-12-04T00:30:14;4.28;;;2.08;;
21733;SDS011;11029;47.820;10.534;2023-12-04T00:33:00;8.23;;;2.28;;
21733;SDS011;11029;47.820;10.534;2023-12-04T00:35:46;2.60;;;1.80;;
21733;SDS011;11029;47.820;10.534;2023-12-04T00:38:31;3.10;;;2.30;;
21733;SDS011;11029;47.820;10.534;2023-12-04T00:41:17;4.40;;;2.05;;
21733;SDS011;11029;47.820;10.534;2023-12-04T00:44:03;3.05;;;2.08;;
21733;SDS011;11029;47.820;10.534;2023-12-04T00:46:49;4.43;;;2.38;;
21733;SDS011;11029;47.820;10.534;2023-12-04T00:49:36;4.72;;;2.42;;
21733;SDS011;11029;47.820;10.534;2023-12-04T00:52:22;2.53;;;1.73;;
21733;SDS011;11029;47.820;10.534;2023-12-04T00:55:08;5.90;;;2.13;;
21733;SDS011;11029;47.820;10.534;2023-12-04T00:57:53;3.00;;;1.80;;
21733;SDS011;11029;47.820;10.534;2023-12-04T01:00:39;3.63;;;2.00;;
21733;SDS011;11029;47.820;10.534;2023-12-04T01:03:24;3.97;;;2.05;;
21733;SDS011;11029;47.820;10.534;2023-12-04T01:06:21;3.78;;;2.10;;
21733;SDS011;11029;47.820;10.534;2023-12-04T01:09:07;4.85;;;1.95;;
21733;SDS011;11029;47.820;10.534;2023-12-04T01:11:53;1.65;;;1.30;;
21733;SDS011;11029;47.820;10.534;2023-12-04T01:14:39;3.65;;;2.30;;
21733;SDS011;11029;47.820;10.534;2023-12-04T01:17:24;10.00;;;4.10;;
21733;SDS011;11029;47.820;10.534;2023-12-04T01:20:10;49.72;;;15.02;;
21733;SDS011;11029;47.820;10.534;2023-12-04T01:22:55;8.77;;;4.38;;
21733;SDS011;11029;47.820;10.534;2023-12-04T01:25:41;2.70;;;1.80;;
21733;SDS011;11029;47.820;10.534;2023-12-04T01:28:26;3.78;;;1.70;;
21733;SDS011;11029;47.820;10.534;2023-12-04T01:31:12;3.65;;;1.90;;
21733;SDS011;11029;47.820;10.534;2023-12-04T01:33:57;3.03;;;1.70;;
21733;SDS011;11029;47.820;10.534;2023-12-04T01:36:43;4.30;;;2.10;;
21733;SDS011;11029;47.820;10.534;2023-12-04T01:39:28;4.50;;;2.33;;
21733;SDS011;11029;47.820;10.534;2023-12-04T01:42:14;1.77;;;1.10;;
21733;SDS011;11029;47.820;10.534;2023-12-04T01:44:59;3.08;;;1.67;;
21733;SDS011;11029;47.820;10.534;2023-12-04T01:47:46;3.97;;;1.50;;
21733;SDS011;11029;47.820;10.534;2023-12-04T01:50:33;2.35;;;1.45;;
21733;SDS011;11029;47.820;10.534;2023-12-04T01:53:20;4.38;;;2.50;;
21733;SDS011;11029;47.820;10.534;2023-12-04T01:56:05;4.50;;;3.03;;
21733;SDS011;11029;47.820;10.534;2023-12-04T01:58:51;4.13;;;2.35;;
21733;SDS011;11029;47.820;10.534;2023-12-04T02:01:37;2.97;;;1.75;;
21733;SDS011;11029;47.820;10.534;2023-12-04T02:04:23;2.20;;;1.67;;
21733;SDS011;11029;47.820;10.534;2023-12-04T02:07:11;2.97;;;1.80;;
21733;SDS011;11029;47.820;10.534;2023-12-04T02:09:56;2.00;;;1.30;;
21733;SDS011;11029;47.820;10.534;2023-12-04T02:12:42;1.08;;;0.98;;
21733;SDS011;11029;47.820;10.534;2023-12-04T02:15:27;1.88;;;1.20;;
21733;SDS011;11029;47.820;10.534;2023-12-04T02:18:13;0.95;;;0.85;;
21733;SDS011;11029;47.820;10.534;2023-12-04T02:21:00;2.08;;;1.23;;
21733;SDS011;11029;47.820;10.534;2023-12-04T02:23:50;1.60;;;1.50;;
21733;SDS011;11029;47.820;10.534;2023-12-04T02:26:47;1.35;;;1.25;;
21733;SDS011;11029;47.820;10.534;2023-12-04T02:30:01;1.48;;;1.30;;
21733;SDS011;11029;47.820;10.534;2023-12-04T02:32:47;1.52;;;1.15;;
21733;SDS011;11029;47.820;10.534;2023-12-04T02:35:35;1.40;;;1.10;;
21733;SDS011;11029;47.820;10.534;2023-12-04T02:38:22;2.00;;;0.95;;
21733;SDS011;11029;47.820;10.534;2023-12-04T02:41:08;2.83;;;1.17;;
21733;SDS011;11029;47.820;10.534;2023-12-04T02:43:54;2.60;;;1.50;;
21733;SDS011;11029;47.820;10.534;2023-12-04T02:46:39;2.17;;;1.17;;
21733;SDS011;11029;47.820;10.534;2023-12-04T02:49:25;3.13;;;1.30;;
21733;SDS011;11029;47.820;10.534;2023-12-04T02:52:11;2.90;;;1.15;;
21733;SDS011;11029;47.820;10.534;2023-12-04T02:54:56;1.48;;;1.20;;
21733;SDS011;11029;47.820;10.534;2023-12-04T02:57:41;0.95;;;0.95;;
21733;SDS011;11029;47.820;10.534;2023-12-04T03:00:27;1.52;;;1.00;;
21733;SDS011;11029;47.820;10.534;2023-12-04T03:03:12;1.95;;;1.45;;
21733;SDS011;11029;47.820;10.534;2023-12-04T03:05:57;1.52;;;1.10;;
21733;SDS011;11029;47.820;10.534;2023-12-04T03:08:43;1.63;;;1.08;;
21733;SDS011;11029;47.820;10.534;2023-12-04T03:11:29;0.85;;;0.85;;
21733;SDS011;11029;47.820;10.534;2023-12-04T03:14:14;1.27;;;0.98;;
21733;SDS011;11029;47.820;10.534;2023-12-04T03:17:00;1.33;;;1.10;;
21733;SDS011;11029;47.820;10.534;2023-12-04T03:19:46;1.23;;;1.10;;
21733;SDS011;11029;47.820;10.534;2023-12-04T03:22:31;1.52;;;1.30;;
21733;SDS011;11029;47.820;10.534;2023-12-04T03:25:16;3.20;;;1.00;;
21733;SDS011;11029;47.820;10.534;2023-12-04T03:28:02;3.85;;;1.73;;
21733;SDS011;11029;47.820;10.534;2023-12-04T03:30:47;1.95;;;1.30;;
21733;SDS011;11029;47.820;10.534;2023-12-04T03:33:33;2.60;;;1.60;;
21733;SDS011;11029;47.820;10.534;2023-12-04T03:36:19;2.08;;;1.35;;
21733;SDS011;11029;47.820;10.534;2023-12-04T03:39:04;2.45;;;1.42;;
21733;SDS011;11029;47.820;10.534;2023-12-04T03:41:49;2.63;;;1.50;;
21733;SDS011;11029;47.820;10.534;2023-12-04T03:44:35;3.60;;;1.38;;
21733;SDS011;11029;47.820;10.534;2023-12-04T03:47:21;1.58;;;1.13;;
21733;SDS011;11029;47.820;10.534;2023-12-04T03:50:08;6.38;;;2.28;;
21733;SDS011;11029;47.820;10.534;2023-12-04T03:52:54;3.28;;;1.58;;
21733;SDS011;11029;47.820;10.534;2023-12-04T03:55:39;4.10;;;1.98;;
21733;SDS011;11029;47.820;10.534;2023-12-04T03:58:25;3.17;;;2.53;;
21733;SDS011;11029;47.820;10.534;2023-12-04T04:01:10;16.48;;;5.47;;
21733;SDS011;11029;47.820;10.534;2023-12-04T04:03:56;10.52;;;3.60;;
21733;SDS011;11029;47.820;10.534;2023-12-04T04:06:42;7.15;;;2.20;;
21733;SDS011;11029;47.820;10.534;2023-12-04T04:09:27;4.45;;;2.35;;
21733;SDS011;11029;47.820;10.534;2023-12-04T04:12:14;3.90;;;1.92;;
21733;SDS011;11029;47.820;10.534;2023-12-04T04:14:59;2.20;;;1.17;;
21733;SDS011;11029;47.820;10.534;2023-12-04T04:17:45;2.10;;;1.23;;
21733;SDS011;11029;47.820;10.534;2023-12-04T04:20:30;1.90;;;1.45;;
21733;SDS011;11029;47.820;10.534;2023-12-04T04:23:16;2.58;;;1.20;;
21733;SDS011;11029;47.820;10.534;2023-12-04T04:26:01;2.42;;;1.98;;
21733;SDS011;11029;47.820;10.534;2023-12-04T04:28:47;2.17;;;1.50;;
21733;SDS011;11029;47.820;10.534;2023-12-04T04:31:33;2.28;;;1.73;;
21733;SDS011;11029;47.820;10.534;2023-12-04T04:34:19;3.53;;;1.90;;
21733;SDS011;11029;47.820;10.534;2023-12-04T04:37:06;2.95;;;1.58;;
21733;SDS011;11029;47.820;10.534;2023-12-04T04:39:52;2.13;;;1.63;;
21733;SDS011;11029;47.820;10.534;2023-12-04T04:42:38;3.90;;;2.10;;
21733;SDS011;11029;47.820;10.534;2023-12-04T04:45:23;2.33;;;1.50;;
21733;SDS011;11029;47.820;10.534;2023-12-04T04:48:09;1.95;;;1.45;;
21733;SDS011;11029;47.820;10.534;2023-12-04T04:50:54;3.38;;;1.60;;
21733;SDS011;11029;47.820;10.534;2023-12-04T04:53:40;3.20;;;2.00;;
21733;SDS011;11029;47.820;10.534;2023-12-04T04:56:25;2.53;;;1.67;;
21733;SDS011;11029;47.820;10.534;2023-12-04T04:59:11;3.00;;;1.92;;
21733;SDS011;11029;47.820;10.534;2023-12-04T05:01:56;3.30;;;1.48;;
21733;SDS011;11029;47.820;10.534;2023-12-04T05:04:42;1.85;;;1.48;;
21733;SDS011;11029;47.820;10.534;2023-12-04T05:07:28;2.88;;;1.63;;
21733;SDS011;11029;47.820;10.534;2023-12-04T05:10:14;2.10;;;1.40;;
21733;SDS011;11029;47.820;10.534;2023-12-04T05:12:59;1.85;;;1.23;;
21733;SDS011;11029;47.820;10.534;2023-12-04T05:15:45;1.92;;;1.27;;
21733;SDS011;11029;47.820;10.534;2023-12-04T05:18:30;3.90;;;1.48;;
21733;SDS011;11029;47.820;10.534;2023-12-04T05:21:16;5.20;;;3.10;;
21733;SDS011;11029;47.820;10.534;2023-12-04T05:24:02;3.83;;;3.50;;
21733;SDS011;11029;47.820;10.534;2023-12-04T05:26:47;4.05;;;2.40;;
21733;SDS011;11029;47.820;10.534;2023-12-04T05:29:33;4.07;;;2.00;;
21733;SDS011;11029;47.820;10.534;2023-12-04T05:32:18;7.25;;;2.78;;
21733;SDS011;11029;47.820;10.534;2023-12-04T05:35:04;3.35;;;1.83;;
21733;SDS011;11029;47.820;10.534;2023-12-04T05:37:50;5.68;;;2.40;;
21733;SDS011;11029;47.820;10.534;2023-12-04T05:40:35;7.45;;;1.55;;
21733;SDS011;11029;47.820;10.534;2023-12-04T05:43:21;7.68;;;3.10;;
21733;SDS011;11029;47.820;10.534;2023-12-04T05:46:06;4.72;;;2.08;;
21733;SDS011;11029;47.820;10.534;2023-12-04T05:48:52;1.13;;;0.98;;
21733;SDS011;11029;47.820;10.534;2023-12-04T05:51:37;7.35;;;3.22;;
21733;SDS011;11029;47.820;10.534;2023-12-04T05:54:23;5.40;;;3.60;;
21733;SDS011;11029;47.820;10.534;2023-12-04T05:57:09;1.73;;;1.25;;
21733;SDS011;11029;47.820;10.534;2023-12-04T05:59:56;3.97;;;2.30;;
21733;SDS011;11029;47.820;10.534;2023-12-04T06:02:42;1.60;;;1.50;;
21733;SDS011;11029;47.820;10.534;2023-12-04T06:05:28;3.38;;;2.25;;
21733;SDS011;11029;47.820;10.534;2023-12-04T06:08:13;2.53;;;1.63;;
21733;SDS011;11029;47.820;10.534;2023-12-04T06:10:59;2.38;;;1.42;;
21733;SDS011;11029;47.820;10.534;2023-12-04T06:13:46;6.75;;;2.45;;
21733;SDS011;11029;47.820;10.534;2023-12-04T06:16:32;1.30;;;1.20;;
21733;SDS011;11029;47.820;10.534;2023-12-04T06:19:18;5.15;;;2.60;;
21733;SDS011;11029;47.820;10.534;2023-12-04T06:22:04;4.13;;;1.50;;
21733;SDS011;11029;47.820;10.534;2023-12-04T06:24:50;1.75;;;1.23;;
21733;SDS011;11029;47.820;10.534;2023-12-04T06:27:36;2.83;;;1.50;;
21733;SDS011;11029;47.820;10.534;2023-12-04T06:30:23;3.63;;;2.40;;
21733;SDS011;11029;47.820;10.534;2023-12-04T06:33:09;8.05;;;3.10;;
21733;SDS011;11029;47.820;10.534;2023-12-04T06:35:55;5.95;;;2.60;;
21733;SDS011;11029;47.820;10.534;2023-12-04T06:38:41;4.05;;;2.05;;
21733;SDS011;11029;47.820;10.534;2023-12-04T06:41:28;1.55;;;1.00;;
21733;SDS011;11029;47.820;10.534;2023-12-04T06:44:14;2.10;;;1.30;;
21733;SDS011;11029;47.820;10.534;2023-12-04T06:47:00;1.95;;;1.75;;
21733;SDS011;11029;47.820;10.534;2023-12-04T06:49:49;2.75;;;2.22;;
21733;SDS011;11029;47.820;10.534;2023-12-04T06:52:35;3.60;;;3.03;;
21733;SDS011;11029;47.820;10.534;2023-12-04T06:55:20;9.50;;;4.80;;
21733;SDS011;11029;47.820;10.534;2023-12-04T06:58:06;9.80;;;4.72;;
21733;SDS011;11029;47.820;10.534;2023-12-04T07:00:51;6.80;;;3.85;;
21733;SDS011;11029;47.820;10.534;2023-12-04T07:03:38;3.63;;;2.08;;
21733;SDS011;11029;47.820;10.534;2023-12-04T07:06:24;4.45;;;2.25;;
21733;SDS011;11029;47.820;10.534;2023-12-04T07:09:09;2.78;;;2.53;;
21733;SDS011;11029;47.820;10.534;2023-12-04T07:11:55;3.58;;;2.75;;
21733;SDS011;11029;47.820;10.534;2023-12-04T07:14:40;2.20;;;1.60;;
21733;SDS011;11029;47.820;10.534;2023-12-04T07:17:26;1.90;;;1.40;;
21733;SDS011;11029;47.820;10.534;2023-12-04T07:20:12;1.60;;;1.13;;
21733;SDS011;11029;47.820;10.534;2023-12-04T07:22:58;1.33;;;1.00;;
21733;SDS011;11029;47.820;10.534;2023-12-04T07:25:44;2.80;;;1.00;;
21733;SDS011;11029;47.820;10.534;2023-12-04T07:28:30;1.10;;;1.00;;
21733;SDS011;11029;47.820;10.534;2023-12-04T07:31:16;1.17;;;0.90;;
21733;SDS011;11029;47.820;10.534;2023-12-04T07:34:02;1.65;;;1.17;;
21733;SDS011;11029;47.820;10.534;2023-12-04T07:36:48;1.50;;;1.40;;
21733;SDS011;11029;47.820;10.534;2023-12-04T07:39:34;5.15;;;2.88;;
21733;SDS011;11029;47.820;10.534;2023-12-04T07:42:19;6.63;;;4.03;;
21733;SDS011;11029;47.820;10.534;2023-12-04T07:45:05;2.63;;;2.15;;
21733;SDS011;11029;47.820;10.534;2023-12-04T07:47:51;2.95;;;2.10;;
21733;SDS011;11029;47.820;10.534;2023-12-04T07:50:37;3.88;;;2.40;;
21733;SDS011;11029;47.820;10.534;2023-12-04T07:53:23;3.78;;;2.50;;
21733;SDS011;11029;47.820;10.534;2023-12-04T07:56:08;6.07;;;3.65;;
21733;SDS011;11029;47.820;10.534;2023-12-04T07:58:54;3.50;;;2.67;;
21733;SDS011;11029;47.820;10.534;2023-12-04T08:01:39;4.25;;;2.28;;
21733;SDS011;11029;47.820;10.534;2023-12-04T08:04:25;5.00;;;2.20;;
21733;SDS011;11029;47.820;10.534;2023-12-04T08:07:12;5.30;;;2.85;;
21733;SDS011;11029;47.820;10.534;2023-12-04T08:09:59;9.32;;;4.57;;
21733;SDS011;11029;47.820;10.534;2023-12-04T08:12:44;9.55;;;5.60;;
21733;SDS011;11029;47.820;10.534;2023-12-04T08:15:31;8.63;;;5.18;;
21733;SDS011;11029;47.820;10.534;2023-12-04T08:18:16;7.88;;;4.85;;
21733;SDS011;11029;47.820;10.534;2023-12-04T08:21:03;7.85;;;4.90;;
21733;SDS011;11029;47.820;10.534;2023-12-04T08:23:49;7.82;;;4.65;;
21733;SDS011;11029;47.820;10.534;2023-12-04T08:26:34;6.75;;;3.92;;
21733;SDS011;11029;47.820;10.534;2023-12-04T08:29:20;7.22;;;3.90;;
21733;SDS011;11029;47.820;10.534;2023-12-04T08:32:06;5.20;;;3.70;;
21733;SDS011;11029;47.820;10.534;2023-12-04T08:34:52;10.00;;;5.03;;
21733;SDS011;11029;47.820;10.534;2023-12-04T08:37:37;5.28;;;3.70;;
21733;SDS011;11029;47.820;10.534;2023-12-04T08:40:23;5.40;;;3.55;;
21733;SDS011;11029;47.820;10.534;2023-12-04T08:43:08;4.32;;;3.28;;
21733;SDS011;11029;47.820;10.534;2023-12-04T08:45:54;5.25;;;3.45;;
21733;SDS011;11029;47.820;10.534;2023-12-04T08:48:40;38.90;;;16.58;;
21733;SDS011;11029;47.820;10.534;2023-12-04T08:51:26;45.42;;;18.25;;
21733;SDS011;11029;47.820;10.534;2023-12-04T08:54:12;33.22;;;15.90;;
21733;SDS011;11029;47.820;10.534;2023-12-04T08:57:01;35.08;;;16.83;;
21733;SDS011;11029;47.820;10.534;2023-12-04T08:59:49;26.17;;;12.70;;
21733;SDS011;11029;47.820;10.534;2023-12-04T09:02:35;24.38;;;12.10;;
21733;SDS011;11029;47.820;10.534;2023-12-04T09:05:30;18.25;;;10.15;;
21733;SDS011;11029;47.820;10.534;2023-12-04T09:08:17;35.33;;;15.20;;
21733;SDS011;11029;47.820;10.534;2023-12-04T09:11:20;23.58;;;10.98;;
21733;SDS011;11029;47.820;10.534;2023-12-04T09:14:08;9.68;;;6.40;;
21733;SDS011;11029;47.820;10.534;2023-12-04T09:16:55;4.85;;;3.38;;
21733;SDS011;11029;47.820;10.534;2023-12-04T09:19:40;6.00;;;3.00;;
21733;SDS011;11029;47.820;10.534;2023-12-04T09:22:26;4.60;;;3.08;;
21733;SDS011;11029;47.820;10.534;2023-12-04T09:25:23;6.00;;;3.30;;
21733;SDS011;11029;47.820;10.534;2023-12-04T09:28:08;8.25;;;5.25;;
21733;SDS011;11029;47.820;10.534;2023-12-04T09:30:53;8.40;;;5.60;;
21733;SDS011;11029;47.820;10.534;2023-12-04T09:33:39;12.23;;;6.72;;
21733;SDS011;11029;47.820;10.534;2023-12-04T09:36:25;3.95;;;3.13;;
21733;SDS011;11029;47.820;10.534;2023-12-04T09:39:10;2.97;;;2.60;;
21733;SDS011;11029;47.820;10.534;2023-12-04T09:41:56;6.20;;;4.47;;
21733;SDS011;11029;47.820;10.534;2023-12-04T09:44:42;7.65;;;4.95;;
21733;SDS011;11029;47.820;10.534;2023-12-04T09:47:28;8.13;;;6.43;;
21733;SDS011;11029;47.820;10.534;2023-12-04T09:50:17;9.98;;;6.82;;
21733;SDS011;11029;47.820;10.534;2023-12-04T09:53:06;7.65;;;5.30;;
21733;SDS011;11029;47.820;10.534;2023-12-04T09:55:56;5.35;;;3.78;;
21733;SDS011;11029;47.820;10.534;2023-12-04T09:58:44;4.35;;;3.08;;
21733;SDS011;11029;47.820;10.534;2023-12-04T10:01:31;7.00;;;4.30;;
21733;SDS011;11029;47.820;10.534;2023-12-04T10:04:19;7.00;;;4.30;;
21733;SDS011;11029;47.820;10.534;2023-12-04T10:07:06;10.20;;;5.57;;
21733;SDS011;11029;47.820;10.534;2023-12-04T10:09:51;12.02;;;6.82;;
21733;SDS011;11029;47.820;10.534;2023-12-04T10:12:37;23.45;;;10.40;;
21733;SDS011;11029;47.820;10.534;2023-12-04T10:15:23;23.83;;;13.55;;
21733;SDS011;11029;47.820;10.534;2023-12-04T10:18:11;16.08;;;10.05;;
21733;SDS011;11029;47.820;10.534;2023-12-04T10:21:15;10.48;;;6.43;;
21733;SDS011;11029;47.820;10.534;2023-12-04T10:24:06;9.10;;;5.55;;
21733;SDS011;11029;47.820;10.534;2023-12-04T10:29:44;28.80;;;12.32;;
21733;SDS011;11029;47.820;10.534;2023-12-04T10:32:36;54.42;;;25.15;;
21733;SDS011;11029;47.820;10.534;2023-12-04T10:35:24;90.20;;;37.00;;
21733;SDS011;11029;47.820;10.534;2023-12-04T10:38:10;22.95;;;12.10;;
21733;SDS011;11029;47.820;10.534;2023-12-04T10:40:55;17.83;;;9.77;;
21733;SDS011;11029;47.820;10.534;2023-12-04T10:43:47;20.27;;;12.32;;
21733;SDS011;11029;47.820;10.534;2023-12-04T10:46:41;20.50;;;11.65;;
21733;SDS011;11029;47.820;10.534;2023-12-04T10:49:27;54.42;;;24.50;;
21733;SDS011;11029;47.820;10.534;2023-12-04T10:52:13;47.17;;;21.45;;
21733;SDS011;11029;47.820;10.534;2023-12-04T10:54:59;41.97;;;21.02;;
21733;SDS011;11029;47.820;10.534;2023-12-04T10:57:48;25.40;;;13.68;;
21733;SDS011;11029;47.820;10.534;2023-12-04T11:00:46;19.92;;;11.55;;
21733;SDS011;11029;47.820;10.534;2023-12-04T11:03:40;19.77;;;11.82;;
21733;SDS011;11029;47.820;10.534;2023-12-04T11:06:39;19.45;;;11.13;;
21733;SDS011;11029;47.820;10.534;2023-12-04T11:09:25;17.73;;;10.57;;
21733;SDS011;11029;47.820;10.534;2023-12-04T11:12:12;15.75;;;9.38;;
21733;SDS011;11029;47.820;10.534;2023-12-04T11:15:02;13.25;;;8.13;;
21733;SDS011;11029;47.820;10.534;2023-12-04T11:17:54;12.88;;;8.13;;
21733;SDS011;11029;47.820;10.534;2023-12-04T11:20:46;16.02;;;9.07;;
21733;SDS011;11029;47.820;10.534;2023-12-04T11:23:37;15.50;;;8.70;;
21733;SDS011;11029;47.820;10.534;2023-12-04T11:26:25;19.40;;;10.75;;
21733;SDS011;11029;47.820;10.534;2023-12-04T11:29:11;23.85;;;11.43;;
21733;SDS011;11029;47.820;10.534;2023-12-04T11:31:58;13.63;;;8.05;;
21733;SDS011;11029;47.820;10.534;2023-12-04T11:34:48;12.60;;;7.32;;
21733;SDS011;11029;47.820;10.534;2023-12-04T11:37:42;15.32;;;10.13;;
21733;SDS011;11029;47.820;10.534;2023-12-04T11:40:28;12.10;;;5.80;;
21733;SDS011;11029;47.820;10.534;2023-12-04T11:46:19;7.38;;;4.50;;
21733;SDS011;11029;47.820;10.534;2023-12-04T11:52:13;7.10;;;4.60;;
21733;SDS011;11029;47.820;10.534;2023-12-04T11:55:00;10.48;;;5.68;;
21733;SDS011;11029;47.820;10.534;2023-12-04T11:57:50;15.35;;;9.20;;
21733;SDS011;11029;47.820;10.534;2023-12-04T12:00:37;39.78;;;17.42;;
21733;SDS011;11029;47.820;10.534;2023-12-04T12:03:23;11.98;;;6.78;;
21733;SDS011;11029;47.820;10.534;2023-12-04T12:06:10;11.75;;;6.30;;
21733;SDS011;11029;47.820;10.534;2023-12-04T12:08:57;11.80;;;7.07;;
21733;SDS011;11029;47.820;10.534;2023-12-04T12:11:44;21.35;;;12.27;;
21733;SDS011;11029;47.820;10.534;2023-12-04T12:14:30;9.80;;;6.00;;
21733;SDS011;11029;47.820;10.534;2023-12-04T12:17:16;11.40;;;6.00;;
21733;SDS011;11029;47.820;10.534;2023-12-04T12:20:01;13.70;;;8.05;;
21733;SDS011;11029;47.820;10.534;2023-12-04T12:22:51;24.45;;;10.77;;
21733;SDS011;11029;47.820;10.534;2023-12-04T12:25:38;12.52;;;6.72;;
21733;SDS011;11029;47.820;10.534;2023-12-04T12:28:23;9.02;;;5.50;;
21733;SDS011;11029;47.820;10.534;2023-12-04T12:31:09;13.85;;;7.38;;
21733;SDS011;11029;47.820;10.534;2023-12-04T12:33:55;10.10;;;6.72;;
21733;SDS011;11029;47.820;10.534;2023-12-04T12:36:43;10.85;;;8.30;;
21733;SDS011;11029;47.820;10.534;2023-12-04T12:39:29;7.88;;;6.00;;
21733;SDS011;11029;47.820;10.534;2023-12-04T12:42:24;12.73;;;7.20;;
21733;SDS011;11029;47.820;10.534;2023-12-04T12:45:13;12.20;;;7.47;;
21733;SDS011;11029;47.820;10.534;2023-12-04T12:47:59;7.60;;;5.30;;
21733;SDS011;11029;47.820;10.534;2023-12-04T12:50:48;8.23;;;5.65;;
21733;SDS011;11029;47.820;10.534;2023-12-04T12:53:34;15.43;;;9.32;;
21733;SDS011;11029;47.820;10.534;2023-12-04T12:56:19;8.15;;;5.65;;
21733;SDS011;11029;47.820;10.534;2023-12-04T12:59:06;7.45;;;5.40;;
21733;SDS011;11029;47.820;10.534;2023-12-04T13:01:52;5.22;;;4.53;;
21733;SDS011;11029;47.820;10.534;2023-12-04T13:04:40;6.65;;;4.60;;
21733;SDS011;11029;47.820;10.534;2023-12-04T13:07:27;13.18;;;7.60;;
21733;SDS011;11029;47.820;10.534;2023-12-04T13:10:12;10.73;;;7.20;;
21733;SDS011;11029;47.820;10.534;2023-12-04T13:12:58;14.45;;;9.55;;
21733;SDS011;11029;47.820;10.534;2023-12-04T13:15:44;10.35;;;6.40;;
21733;SDS011;11029;47.820;10.534;2023-12-04T13:18:30;6.10;;;4.25;;
21733;SDS011;11029;47.820;10.534;2023-12-04T13:21:19;11.27;;;6.80;;
21733;SDS011;11029;47.820;10.534;2023-12-04T13:24:05;7.65;;;5.13;;
21733;SDS011;11029;47.820;10.534;2023-12-04T13:26:53;10.52;;;7.18;;
21733;SDS011;11029;47.820;10.534;2023-12-04T13:29:38;15.63;;;11.27;;
21733;SDS011;11029;47.820;10.534;2023-12-04T13:32:24;5.13;;;3.42;;
21733;SDS011;11029;47.820;10.534;2023-12-04T13:35:10;5.90;;;3.85;;
21733;SDS011;11029;47.820;10.534;2023-12-04T13:37:56;6.15;;;4.65;;
21733;SDS011;11029;47.820;10.534;2023-12-04T13:40:44;5.68;;;3.38;;
21733;SDS011;11029;47.820;10.534;2023-12-04T13:43:44;4.65;;;3.70;;
21733;SDS011;11029;47.820;10.534;2023-12-04T13:46:35;5.53;;;4.70;;
21733;SDS011;11029;47.820;10.534;2023-12-04T13:49:21;6.80;;;4.93;;
21733;SDS011;11029;47.820;10.534;2023-12-04T13:52:07;6.72;;;4.60;;
21733;SDS011;11029;47.820;10.534;2023-12-04T13:54:53;6.82;;;4.68;;
21733;SDS011;11029;47.820;10.534;2023-12-04T13:57:39;8.70;;;5.22;;
21733;SDS011;11029;47.820;10.534;2023-12-04T14:00:51;10.82;;;6.15;;
21733;SDS011;11029;47.820;10.534;2023-12-04T14:03:37;15.23;;;10.25;;
21733;SDS011;11029;47.820;10.534;2023-12-04T14:06:23;14.05;;;9.10;;
21733;SDS011;11029;47.820;10.534;2023-12-04T14:09:09;18.02;;;11.13;;
21733;SDS011;11029;47.820;10.534;2023-12-04T14:11:55;19.70;;;11.02;;
21733;SDS011;11029;47.820;10.534;2023-12-04T14:14:41;23.65;;;12.48;;
21733;SDS011;11029;47.820;10.534;2023-12-04T14:17:27;14.63;;;8.73;;
21733;SDS011;11029;47.820;10.534;2023-12-04T14:20:13;14.00;;;9.20;;
21733;SDS011;11029;47.820;10.534;2023-12-04T14:23:01;36.60;;;23.98;;
21733;SDS011;11029;47.820;10.534;2023-12-04T14:25:47;57.97;;;33.92;;
21733;SDS011;11029;47.820;10.534;2023-12-04T14:28:33;52.70;;;32.58;;
21733;SDS011;11029;47.820;10.534;2023-12-04T14:31:27;28.58;;;17.95;;
21733;SDS011;11029;47.820;10.534;2023-12-04T14:34:12;21.52;;;12.05;;
21733;SDS011;11029;47.820;10.534;2023-12-04T14:36:58;14.90;;;10.02;;
21733;SDS011;11029;47.820;10.534;2023-12-04T14:39:44;15.80;;;10.30;;
21733;SDS011;11029;47.820;10.534;2023-12-04T14:42:30;16.70;;;11.35;;
21733;SDS011;11029;47.820;10.534;2023-12-04T14:45:16;15.35;;;10.73;;
21733;SDS011;11029;47.820;10.534;2023-12-04T14:48:02;17.70;;;11.45;;
21733;SDS011;11029;47.820;10.534;2023-12-04T14:50:51;19.35;;;11.90;;
21733;SDS011;11029;47.820;10.534;2023-12-04T14:53:38;29.67;;;17.25;;
21733;SDS011;11029;47.820;10.534;2023-12-04T14:56:55;31.33;;;17.35;;
21733;SDS011;11029;47.820;10.534;2023-12-04T14:59:59;32.85;;;19.83;;
21733;SDS011;11029;47.820;10.534;2023-12-04T15:03:03;34.97;;;20.58;;
21733;SDS011;11029;47.820;10.534;2023-12-04T15:06:14;23.48;;;14.48;;
21733;SDS011;11029;47.820;10.534;2023-12-04T15:09:27;23.92;;;11.73;;
21733;SDS011;11029;47.820;10.534;2023-12-04T15:12:32;22.85;;;12.50;;
21733;SDS011;11029;47.820;10.534;2023-12-04T15:15:36;16.55;;;9.90;;
21733;SDS011;11029;47.820;10.534;2023-12-04T15:18:44;11.18;;;7.70;;
21733;SDS011;11029;47.820;10.534;2023-12-04T15:21:42;11.63;;;7.50;;
21733;SDS011;11029;47.820;10.534;2023-12-04T15:24:27;11.48;;;7.97;;
21733;SDS011;11029;47.820;10.534;2023-12-04T15:27:12;13.43;;;7.47;;
21733;SDS011;11029;47.820;10.534;2023-12-04T15:29:58;11.07;;;7.57;;
21733;SDS011;11029;47.820;10.534;2023-12-04T15:32:44;12.57;;;8.43;;
21733;SDS011;11029;47.820;10.534;2023-12-04T15:35:29;19.75;;;12.63;;
21733;SDS011;11029;47.820;10.534;2023-12-04T15:38:15;27.63;;;14.65;;
21733;SDS011;11029;47.820;10.534;2023-12-04T15:41:00;29.23;;;17.63;;
21733;SDS011;11029;47.820;10.534;2023-12-04T15:43:46;32.55;;;18.02;;
21733;SDS011;11029;47.820;10.534;2023-12-04T15:46:33;33.55;;;18.92;;
21733;SDS011;11029;47.820;10.534;2023-12-04T15:49:19;34.50;;;19.52;;
21733;SDS011;11029;47.820;10.534;2023-12-04T15:52:05;34.22;;;19.48;;
21733;SDS011;11029;47.820;10.534;2023-12-04T15:54:50;57.33;;;27.92;;
21733;SDS011;11029;47.820;10.534;2023-12-04T15:57:37;86.88;;;37.08;;
21733;SDS011;11029;47.820;10.534;2023-12-04T16:00:24;48.00;;;22.08;;
21733;SDS011;11029;47.820;10.534;2023-12-04T16:03:11;132.93;;;57.08;;
21733;SDS011;11029;47.820;10.534;2023-12-04T16:05:56;93.32;;;39.85;;
21733;SDS011;11029;47.820;10.534;2023-12-04T16:08:42;83.88;;;37.80;;
21733;SDS011;11029;47.820;10.534;2023-12-04T16:11:29;65.45;;;32.83;;
21733;SDS011;11029;47.820;10.534;2023-12-04T16:14:14;70.85;;;34.47;;
21733;SDS011;11029;47.820;10.534;2023-12-04T16:17:00;75.88;;;36.88;;
21733;SDS011;11029;47.820;10.534;2023-12-04T16:19:45;49.45;;;26.75;;
21733;SDS011;11029;47.820;10.534;2023-12-04T16:22:31;56.05;;;27.80;;
21733;SDS011;11029;47.820;10.534;2023-12-04T16:25:17;58.70;;;30.95;;
21733;SDS011;11029;47.820;10.534;2023-12-04T16:28:03;53.05;;;28.80;;
21733;SDS011;11029;47.820;10.534;2023-12-04T16:30:51;54.78;;;26.67;;
21733;SDS011;11029;47.820;10.534;2023-12-04T16:33:40;48.80;;;25.17;;